This is the latest recevied weather packets stored in our database for station/object KP4FJC. If no packets are shown the sender has not sent any weather packets the latest 1 day(s).
| Time | Temp. | Humidity | Pressure | Rain* | Wind** | Luminosity | Snow |
|---|---|---|---|---|---|---|---|
| 1778110657 | 28.33° C | 73% | 1018.2 hPa | 0 mm | - | 0 W/m² | - |
| 1778110353 | 28.33° C | 72% | 1018.4 hPa | 0 mm | - | 0 W/m² | - |
| 1778110050 | 28.33° C | 72% | 1018.2 hPa | 0 mm | - | 0 W/m² | - |
| 1778108534 | 28.89° C | 70% | 1018 hPa | 0 mm | - | 0 W/m² | - |
| 1778107017 | 29.44° C | 68% | 1017.5 hPa | 0 mm | - | 12 W/m² | - |
| 1778106410 | 29.44° C | 67% | 1017.1 hPa | 0 mm | - | 19 W/m² | - |
| 1778105804 | 30° C | 67% | 1017.3 hPa | 0 mm | - | 27 W/m² | - |
| 1778104893 | 30.56° C | 64% | 1017.1 hPa | 0 mm | - | 56 W/m² | - |
| 1778102163 | 31.67° C | 61% | 1016.5 hPa | 0 mm | - | 170 W/m² | - |
| 1778100950 | 31.67° C | 61% | 1016.3 hPa | 0 mm | - | 248 W/m² | - |
| 1778100645 | 31.67° C | 61% | 1016.3 hPa | 0 mm | - | 269 W/m² | - |
| 1778099739 | 31.67° C | 61% | 1016.3 hPa | 0 mm | - | 332 W/m² | - |
| 1778099435 | 32.22° C | 60% | 1016.3 hPa | 0 mm | - | 354 W/m² | - |
| 1778097313 | 31.67° C | 59% | 1016.5 hPa | 0 mm | - | 500 W/m² | - |
| 1778097009 | 32.78° C | 58% | 1016.3 hPa | 0 mm | - | 521 W/m² | - |
| 1778096403 | 31.67° C | 58% | 1016.4 hPa | 0 mm | - | 561 W/m² | - |
| 1778095494 | 32.78° C | 55% | 1016.4 hPa | 0 mm | - | 622 W/m² | - |
| 1778092760 | 32.78° C | 52% | 1017.1 hPa | 0 mm | - | 768 W/m² | - |
| 1778092455 | 33.33° C | 53% | 1017.2 hPa | 0 mm | - | 782 W/m² | - |
| 1778089123 | 32.78° C | 53% | 1017.9 hPa | 0 mm | - | 899 W/m² | - |
| 1778087001 | 33.89° C | 52% | 1018.6 hPa | 0 mm | - | 452 W/m² | - |
| 1778086094 | 32.22° C | 54% | 1018.7 hPa | 0 mm | - | 913 W/m² | - |
| 1778083364 | 32.22° C | 55% | 1019.6 hPa | 0 mm | - | 959 W/m² | - |
| 1778083063 | 32.22° C | 53% | 1019.5 hPa | 0 mm | - | 953 W/m² | - |
| 1778080416 | 32.78° C | 56% | 1020 hPa | 0 mm | - | 949 W/m² | - |
* Rain latest hour (hover to see other rain measurements)
** Current wind speed in m/s (hover to see current wind gust speed)